createdAt,value
2018-02-13T00:01:57.485Z,3.10
2018-02-13T00:05:03.046Z,2.57
2018-02-13T00:08:08.580Z,2.83
2018-02-13T00:11:14.192Z,2.70
2018-02-13T00:14:19.700Z,3.13
2018-02-13T00:17:25.265Z,3.00
2018-02-13T00:20:30.798Z,3.03
2018-02-13T00:23:36.364Z,3.20
2018-02-13T00:26:41.889Z,3.00
2018-02-13T00:29:47.452Z,3.60
2018-02-13T00:32:52.991Z,3.30
2018-02-13T00:35:58.541Z,2.80
2018-02-13T00:39:03.865Z,2.83
2018-02-13T00:42:09.440Z,3.40
2018-02-13T00:45:14.974Z,3.10
2018-02-13T00:48:20.557Z,3.10
2018-02-13T00:51:26.078Z,3.67
2018-02-13T00:54:31.651Z,4.13
2018-02-13T00:57:37.197Z,3.03
2018-02-13T01:00:46.652Z,3.60
2018-02-13T01:03:52.198Z,4.00
2018-02-13T01:06:57.772Z,3.67
2018-02-13T01:10:03.286Z,4.23
2018-02-13T01:13:08.832Z,4.80
2018-02-13T01:16:14.359Z,4.23
2018-02-13T01:19:19.935Z,4.33
2018-02-13T01:22:25.464Z,4.30
2018-02-13T01:25:31.026Z,4.00
2018-02-13T01:28:36.539Z,4.47
2018-02-13T01:31:42.105Z,3.67
2018-02-13T01:34:47.613Z,4.20
2018-02-13T01:37:53.174Z,4.60
2018-02-13T01:40:58.701Z,4.70
2018-02-13T01:44:04.272Z,4.80
2018-02-13T01:47:09.782Z,5.13
2018-02-13T01:50:26.817Z,4.80
2018-02-13T01:54:01.431Z,4.90
2018-02-13T01:57:23.554Z,4.60
2018-02-13T02:00:38.248Z,4.70
2018-02-13T02:03:47.164Z,4.37
2018-02-13T02:06:54.466Z,5.13
2018-02-13T02:10:12.632Z,4.30
2018-02-13T02:13:34.778Z,4.47
2018-02-13T02:16:45.163Z,4.23
2018-02-13T02:19:52.676Z,4.50
2018-02-13T02:23:00.937Z,5.10
2018-02-13T02:26:08.736Z,4.53
2018-02-13T02:29:15.936Z,4.60
2018-02-13T02:32:23.245Z,4.40
2018-02-13T02:35:30.681Z,5.20
2018-02-13T02:38:37.363Z,4.87
2018-02-13T02:41:44.315Z,4.80
2018-02-13T02:44:50.254Z,4.33
2018-02-13T02:47:55.819Z,5.20
2018-02-13T02:51:01.345Z,4.90
2018-02-13T02:54:06.909Z,4.40
2018-02-13T02:57:12.468Z,4.77
2018-02-13T03:00:18.053Z,4.97
2018-02-13T03:03:23.632Z,6.20
2018-02-13T03:06:29.199Z,5.03
2018-02-13T03:09:34.418Z,5.03
2018-02-13T03:12:39.985Z,5.30
2018-02-13T03:15:45.516Z,5.23
2018-02-13T03:18:51.086Z,5.80
2018-02-13T03:21:56.604Z,5.57
2018-02-13T03:25:02.153Z,5.20
2018-02-13T03:28:07.754Z,5.53
2018-02-13T03:31:13.346Z,5.00
2018-02-13T03:34:18.858Z,5.00
2018-02-13T03:37:25.376Z,5.00
2018-02-13T03:40:30.881Z,5.13
2018-02-13T03:43:36.456Z,5.33
2018-02-13T03:46:41.862Z,5.40
2018-02-13T03:49:47.417Z,5.40
2018-02-13T03:52:52.937Z,5.17
2018-02-13T03:55:58.497Z,5.60
2018-02-13T03:59:04.149Z,5.20
2018-02-13T04:02:09.668Z,5.10
2018-02-13T04:05:15.241Z,6.10
2018-02-13T04:08:20.816Z,5.97
2018-02-13T04:11:26.352Z,5.03
2018-02-13T04:14:31.919Z,5.90
2018-02-13T04:17:37.451Z,6.47
2018-02-13T04:20:46.691Z,5.33
2018-02-13T04:23:52.213Z,6.07
2018-02-13T04:26:57.765Z,5.90
2018-02-13T04:30:03.185Z,6.80
2018-02-13T04:33:08.752Z,6.00
2018-02-13T04:36:14.329Z,6.30
2018-02-13T04:39:19.853Z,6.10
2018-02-13T04:42:25.403Z,5.30
2018-02-13T04:45:30.939Z,5.90
2018-02-13T04:48:36.503Z,5.43
2018-02-13T04:51:42.015Z,5.87
2018-02-13T04:54:49.652Z,6.67
2018-02-13T04:57:55.186Z,5.53
2018-02-13T05:01:00.752Z,5.70
2018-02-13T05:04:11.528Z,6.50
2018-02-13T05:07:17.099Z,6.50
2018-02-13T05:10:22.628Z,7.33
2018-02-13T05:13:28.201Z,6.23
2018-02-13T05:16:33.706Z,6.63
2018-02-13T05:19:39.300Z,6.20
2018-02-13T05:22:46.221Z,6.80
2018-02-13T05:25:53.056Z,7.00
2018-02-13T05:28:58.657Z,7.90
2018-02-13T05:32:04.220Z,6.50
2018-02-13T05:35:24.160Z,6.30
2018-02-13T05:39:06.632Z,6.53
2018-02-13T05:42:21.084Z,6.87
2018-02-13T05:45:40.297Z,7.27
2018-02-13T05:48:46.001Z,6.73
2018-02-13T05:51:51.575Z,6.50
2018-02-13T05:54:58.085Z,6.17
2018-02-13T05:58:03.669Z,6.47
2018-02-13T06:01:09.193Z,7.17
2018-02-13T06:04:17.184Z,7.63
2018-02-13T06:07:30.023Z,6.73
2018-02-13T06:10:35.585Z,6.60
2018-02-13T06:13:41.154Z,7.20
2018-02-13T06:16:46.689Z,6.30
2018-02-13T06:19:52.285Z,6.87
2018-02-13T06:22:57.815Z,7.20
2018-02-13T06:26:03.383Z,6.93
2018-02-13T06:29:08.892Z,7.57
2018-02-13T06:32:14.444Z,6.70
2018-02-13T06:35:19.970Z,7.70
2018-02-13T06:38:25.536Z,7.93
2018-02-13T06:41:31.078Z,7.40
2018-02-13T06:44:36.676Z,8.80
2018-02-13T06:47:43.316Z,7.63
2018-02-13T06:50:48.890Z,8.00
2018-02-13T06:53:54.199Z,7.73
2018-02-13T06:56:59.885Z,9.00
2018-02-13T07:00:04.952Z,9.20
2018-02-13T07:03:10.526Z,8.20
2018-02-13T07:06:16.075Z,8.33
2018-02-13T07:09:21.651Z,9.37
2018-02-13T07:12:27.177Z,9.47
2018-02-13T07:15:32.762Z,8.90
2018-02-13T07:18:38.329Z,9.50
2018-02-13T07:21:43.877Z,9.50
2018-02-13T07:24:49.455Z,10.37
2018-02-13T07:27:54.977Z,9.63
2018-02-13T07:31:00.533Z,10.20
2018-02-13T07:34:06.108Z,10.83
2018-02-13T07:37:11.703Z,10.17
2018-02-13T07:40:17.286Z,11.23
2018-02-13T07:43:22.848Z,11.20
2018-02-13T07:46:28.389Z,10.20
2018-02-13T07:49:33.978Z,10.60
2018-02-13T07:52:39.509Z,10.80
2018-02-13T07:55:45.061Z,11.20
2018-02-13T07:58:50.629Z,11.90
2018-02-13T08:01:56.204Z,11.23
2018-02-13T08:05:01.745Z,12.57
2018-02-13T08:08:07.321Z,11.87
2018-02-13T08:11:12.894Z,12.17
2018-02-13T08:14:18.454Z,11.43
2018-02-13T08:17:24.014Z,11.40
2018-02-13T08:20:29.634Z,10.77
2018-02-13T08:23:35.410Z,12.70
2018-02-13T08:26:40.929Z,12.87
2018-02-13T08:29:46.504Z,13.00
2018-02-13T08:32:52.090Z,13.97
2018-02-13T08:35:57.613Z,13.77
2018-02-13T08:39:03.234Z,13.17
2018-02-13T08:42:08.749Z,13.90
2018-02-13T08:45:14.364Z,14.37
2018-02-13T08:48:19.937Z,13.13
2018-02-13T08:51:25.504Z,13.63
2018-02-13T08:54:31.112Z,14.73
2018-02-13T08:57:40.853Z,14.43
2018-02-13T09:00:46.471Z,13.60
2018-02-13T09:03:52.028Z,14.20
2018-02-13T09:06:57.610Z,12.73
2018-02-13T09:10:03.188Z,13.90
2018-02-13T09:13:08.837Z,12.87
2018-02-13T09:16:14.384Z,14.77
2018-02-13T09:19:19.972Z,13.13
2018-02-13T09:22:25.558Z,13.97
2018-02-13T09:25:31.113Z,13.30
2018-02-13T09:28:36.713Z,13.77
2018-02-13T09:31:42.245Z,15.27
2018-02-13T09:34:47.836Z,12.93
2018-02-13T09:37:53.392Z,14.60
2018-02-13T09:40:58.961Z,13.73
2018-02-13T09:44:04.323Z,14.47
2018-02-13T09:47:09.864Z,14.90
2018-02-13T09:50:15.473Z,16.17
2018-02-13T09:53:20.996Z,16.67
2018-02-13T09:56:26.574Z,17.53
2018-02-13T09:59:32.084Z,17.30
2018-02-13T10:02:37.676Z,15.70
2018-02-13T10:05:43.225Z,17.73
2018-02-13T10:08:48.793Z,16.57
2018-02-13T10:11:54.320Z,16.73
2018-02-13T10:14:59.636Z,17.60
2018-02-13T10:18:05.201Z,16.93
2018-02-13T10:21:10.597Z,16.33
2018-02-13T10:24:16.190Z,14.93
2018-02-13T10:27:21.742Z,16.13
2018-02-13T10:30:27.303Z,14.40
2018-02-13T10:33:32.873Z,15.73
2018-02-13T10:36:38.521Z,16.57
2018-02-13T10:39:44.058Z,14.23
2018-02-13T10:42:49.628Z,16.20
2018-02-13T10:45:55.189Z,16.10
2018-02-13T10:49:00.794Z,14.30
2018-02-13T10:52:06.347Z,15.47
2018-02-13T10:55:11.937Z,15.50
2018-02-13T10:58:17.510Z,15.00
2018-02-13T11:01:28.528Z,15.80
2018-02-13T11:04:34.044Z,15.30
2018-02-13T11:07:41.877Z,13.87
2018-02-13T11:10:47.443Z,14.43
2018-02-13T11:13:52.831Z,14.00
2018-02-13T11:16:58.280Z,13.20
2018-02-13T11:20:03.896Z,13.87
2018-02-13T11:23:09.453Z,14.30
2018-02-13T11:26:15.645Z,14.70
2018-02-13T11:29:24.213Z,14.73
2018-02-13T11:32:29.750Z,14.43
2018-02-13T11:35:35.340Z,15.53
2018-02-13T11:38:40.852Z,15.20
2018-02-13T11:41:46.401Z,15.57
2018-02-13T11:44:51.942Z,17.57
2018-02-13T11:47:57.509Z,16.00
2018-02-13T11:51:03.084Z,15.33
2018-02-13T11:54:08.632Z,14.50
2018-02-13T11:57:14.199Z,15.47
2018-02-13T12:00:19.752Z,15.23
2018-02-13T12:03:25.331Z,15.47
2018-02-13T12:06:30.844Z,13.93
2018-02-13T12:09:36.392Z,14.07
2018-02-13T12:12:41.965Z,13.37
2018-02-13T12:15:47.556Z,12.57
2018-02-13T12:18:53.075Z,13.87
2018-02-13T12:21:58.634Z,12.37
2018-02-13T12:25:04.171Z,12.33
2018-02-13T12:28:09.570Z,13.10
2018-02-13T12:31:14.793Z,13.03
2018-02-13T12:34:20.350Z,12.17
2018-02-13T12:37:25.873Z,13.43
2018-02-13T12:40:31.468Z,12.23
2018-02-13T12:43:37.046Z,12.73
2018-02-13T12:46:42.597Z,12.67
2018-02-13T12:49:48.181Z,14.00
2018-02-13T12:52:53.772Z,16.20
2018-02-13T12:55:59.317Z,15.90
2018-02-13T12:59:04.896Z,15.83
2018-02-13T13:02:10.472Z,16.00
2018-02-13T13:05:16.079Z,15.50
2018-02-13T13:08:21.666Z,14.50
2018-02-13T13:11:27.245Z,14.60
2018-02-13T13:14:32.848Z,15.03
2018-02-13T13:17:45.453Z,13.47
2018-02-13T13:20:50.983Z,13.13
2018-02-13T13:23:56.613Z,13.13
2018-02-13T13:27:02.164Z,12.67
2018-02-13T13:30:07.769Z,13.33
2018-02-13T13:33:13.342Z,13.27
2018-02-13T13:36:18.857Z,11.43
2018-02-13T13:39:24.432Z,11.67
2018-02-13T13:42:29.973Z,11.00
2018-02-13T13:45:35.593Z,11.83
2018-02-13T13:48:41.135Z,11.20
2018-02-13T13:51:46.700Z,11.93
2018-02-13T13:54:52.213Z,10.30
2018-02-13T13:57:57.876Z,9.33
2018-02-13T14:01:03.410Z,10.00
2018-02-13T14:04:08.994Z,9.93
2018-02-13T14:07:14.526Z,10.80
2018-02-13T14:10:19.889Z,9.33
2018-02-13T14:13:25.442Z,9.33
2018-02-13T14:16:30.867Z,9.40
2018-02-13T14:19:36.463Z,8.77
2018-02-13T14:22:42.021Z,8.67
2018-02-13T14:25:47.541Z,9.00
2018-02-13T14:28:53.113Z,8.50
2018-02-13T14:31:58.378Z,9.40
2018-02-13T14:35:03.929Z,9.33
2018-02-13T14:38:09.444Z,9.07
2018-02-13T14:41:15.023Z,8.20
2018-02-13T14:44:20.558Z,9.37
2018-02-13T14:47:26.177Z,9.00
2018-02-13T14:50:32.017Z,10.07
2018-02-13T14:53:37.584Z,9.60
2018-02-13T14:56:43.154Z,9.10
2018-02-13T14:59:48.937Z,9.30
2018-02-13T15:02:54.518Z,8.30
2018-02-13T15:06:00.067Z,8.70
2018-02-13T15:09:05.167Z,8.30
2018-02-13T15:12:10.603Z,8.93
2018-02-13T15:15:16.930Z,8.70
2018-02-13T15:18:27.909Z,6.90
2018-02-13T15:21:33.432Z,6.30
2018-02-13T15:24:38.983Z,5.47
2018-02-13T15:27:44.515Z,5.17
2018-02-13T15:30:49.935Z,6.47
2018-02-13T15:33:55.503Z,6.83
2018-02-13T15:37:01.065Z,5.80
2018-02-13T15:40:06.574Z,5.60
2018-02-13T15:43:12.132Z,5.70
2018-02-13T15:46:17.524Z,5.90
2018-02-13T15:49:23.030Z,5.67
2018-02-13T15:52:28.580Z,5.83
2018-02-13T15:55:34.083Z,5.00
2018-02-13T15:58:39.667Z,5.23
2018-02-13T16:01:45.434Z,5.40
2018-02-13T16:04:50.943Z,4.53
2018-02-13T16:07:56.485Z,5.53
2018-02-13T16:11:01.996Z,5.07
2018-02-13T16:14:07.540Z,4.57
2018-02-13T16:17:13.079Z,4.73
2018-02-13T16:20:18.616Z,4.00
2018-02-13T16:23:23.979Z,5.17
2018-02-13T16:26:29.539Z,5.03
2018-02-13T16:29:35.100Z,6.00
2018-02-13T16:32:40.605Z,4.60
2018-02-13T16:35:46.156Z,4.50
2018-02-13T16:38:51.905Z,6.30
2018-02-13T16:41:57.447Z,4.93
2018-02-13T16:45:03.001Z,4.47
2018-02-13T16:48:08.504Z,5.10
2018-02-13T16:51:14.049Z,5.17
2018-02-13T16:54:19.568Z,5.10
2018-02-13T16:57:25.154Z,4.80
2018-02-13T17:00:30.649Z,4.93
2018-02-13T17:03:36.201Z,5.63
2018-02-13T17:06:41.714Z,5.10
2018-02-13T17:09:47.276Z,5.40
2018-02-13T17:12:52.793Z,5.33
2018-02-13T17:15:58.628Z,7.37
2018-02-13T17:19:05.183Z,8.57
2018-02-13T17:22:10.691Z,6.17
2018-02-13T17:25:16.236Z,6.43
2018-02-13T17:28:21.802Z,5.97
2018-02-13T17:31:27.461Z,6.77
2018-02-13T17:34:33.284Z,5.83
2018-02-13T17:37:42.138Z,7.17
2018-02-13T17:40:48.217Z,7.30
2018-02-13T17:43:59.556Z,8.40
2018-02-13T17:47:07.710Z,9.93
2018-02-13T17:50:22.331Z,10.80
2018-02-13T17:53:52.008Z,11.37
2018-02-13T17:57:14.287Z,10.77
2018-02-13T18:00:34.963Z,12.13
2018-02-13T18:03:51.302Z,11.93
2018-02-13T18:07:16.232Z,11.77
2018-02-13T18:10:37.790Z,11.30
2018-02-13T18:13:56.409Z,10.67
2018-02-13T18:17:13.981Z,11.47
2018-02-13T18:20:39.252Z,9.80
2018-02-13T18:27:10.473Z,9.53
2018-02-13T18:30:32.975Z,9.40
2018-02-13T18:33:53.112Z,9.43
2018-02-13T18:37:10.466Z,9.70
2018-02-13T18:40:40.116Z,9.03
2018-02-13T18:44:03.255Z,10.37
2018-02-13T18:47:23.029Z,10.53
2018-02-13T18:50:47.988Z,9.00
2018-02-13T18:54:13.562Z,13.07
2018-02-13T18:57:35.623Z,10.57
2018-02-13T19:00:53.959Z,10.17
2018-02-13T19:11:10.381Z,9.87
2018-02-13T19:14:35.555Z,9.80
2018-02-13T19:17:58.915Z,9.90
2018-02-13T19:21:18.952Z,9.77
2018-02-13T19:24:28.807Z,9.30
2018-02-13T19:27:48.597Z,8.83
2018-02-13T19:31:05.571Z,8.70
2018-02-13T19:34:15.174Z,8.60
2018-02-13T19:37:25.340Z,8.80
2018-02-13T19:40:38.852Z,8.10
2018-02-13T19:43:48.744Z,8.03
2018-02-13T19:46:57.756Z,8.00
2018-02-13T19:50:12.604Z,9.97
2018-02-13T19:53:28.397Z,8.43
2018-02-13T19:56:49.636Z,8.10
2018-02-13T20:00:01.789Z,8.63
2018-02-13T20:03:08.628Z,8.70
2018-02-13T20:06:18.056Z,7.37
2018-02-13T20:09:26.868Z,6.90
2018-02-13T20:12:35.613Z,6.80
2018-02-13T20:15:48.771Z,6.70
2018-02-13T20:19:06.969Z,6.40
2018-02-13T20:22:16.833Z,6.77
2018-02-13T20:25:26.056Z,6.60
2018-02-13T20:28:36.015Z,6.20
2018-02-13T20:31:45.692Z,6.37
2018-02-13T20:34:56.816Z,6.23
2018-02-13T20:38:06.135Z,6.13
2018-02-13T20:41:20.841Z,6.27
2018-02-13T20:44:34.993Z,6.43
2018-02-13T20:47:45.438Z,6.30
2018-02-13T20:50:59.817Z,6.30
2018-02-13T20:54:10.104Z,6.80
2018-02-13T20:57:27.788Z,6.00
2018-02-13T21:00:37.042Z,5.27
2018-02-13T21:03:44.245Z,6.20
2018-02-13T21:06:49.830Z,5.50
2018-02-13T21:09:55.377Z,6.07
2018-02-13T21:13:00.954Z,5.90
2018-02-13T21:16:06.475Z,5.30
2018-02-13T21:19:12.027Z,5.20
2018-02-13T21:22:17.589Z,4.83
2018-02-13T21:25:23.407Z,4.73
2018-02-13T21:28:28.980Z,5.50
2018-02-13T21:31:34.266Z,5.40
2018-02-13T21:34:39.814Z,4.83
2018-02-13T21:37:45.402Z,5.17
2018-02-13T21:40:50.465Z,5.17
2018-02-13T21:43:56.068Z,5.70
2018-02-13T21:47:01.598Z,5.10
2018-02-13T21:50:07.169Z,5.10
2018-02-13T21:53:12.190Z,5.10
2018-02-13T21:56:17.735Z,4.83
2018-02-13T21:59:23.292Z,4.47
2018-02-13T22:02:28.589Z,4.80
2018-02-13T22:05:34.154Z,4.40
2018-02-13T22:08:39.698Z,4.40
2018-02-13T22:11:45.251Z,4.33
2018-02-13T22:14:50.810Z,5.80
2018-02-13T22:17:56.378Z,4.40
2018-02-13T22:21:01.901Z,4.30
2018-02-13T22:24:07.450Z,4.73
2018-02-13T22:27:13.012Z,4.63
2018-02-13T22:30:18.570Z,4.40
2018-02-13T22:33:24.132Z,4.53
2018-02-13T22:36:29.724Z,4.80
2018-02-13T22:39:35.283Z,4.60
2018-02-13T22:42:40.851Z,4.97
2018-02-13T22:45:46.397Z,5.13
2018-02-13T22:48:51.949Z,3.97
2018-02-13T22:51:57.637Z,4.47
2018-02-13T22:55:03.192Z,5.00
2018-02-13T22:58:08.718Z,4.73
2018-02-13T23:01:14.274Z,4.37
2018-02-13T23:04:19.546Z,4.47
2018-02-13T23:07:25.126Z,4.80
2018-02-13T23:10:30.628Z,4.70
2018-02-13T23:13:36.219Z,4.70
2018-02-13T23:16:41.731Z,4.33
2018-02-13T23:19:47.301Z,4.57
2018-02-13T23:22:52.836Z,5.00
2018-02-13T23:25:58.419Z,3.97
2018-02-13T23:29:07.410Z,4.83
2018-02-13T23:32:13.942Z,5.50
2018-02-13T23:35:19.258Z,4.47
2018-02-13T23:38:24.770Z,4.10
2018-02-13T23:41:30.331Z,4.67
2018-02-13T23:44:35.889Z,4.90
2018-02-13T23:47:45.570Z,4.30
2018-02-13T23:50:51.126Z,3.83
2018-02-13T23:53:56.710Z,4.50
2018-02-13T23:57:02.210Z,4.60
